EKVGEGPN

Guest
Details From EKVG - Vagar
To EGPN - Dundee
Flight Number -
Tags generated
Created
Modified
Stats Distance 378 nm / 700 km
Max Altitude 35,000 ft / 10,668 m
Waypoints 6
Social Downloads 0
Likes 0
Share VATSIM

Download

Looking for another format? Having issues loading an existing format? Contact us
Advertisement - Login to hide

Notes

Basic altitude profile: - Ascent Rate: 2500ft/min - Ascent Speed: 250kts - Cruise Altitude: 35000ft - Cruise Speed: 420kts - Descent Rate: 1500ft/min - Descent Speed: 250kts Options: - Use NATs: yes - Use PACOTS: yes - Use low airways: yes - Use high airways: yes

Route

EKVG GONUT UM87 PIPEM EGPN

ID Type Via Altitude Latitude Longitude Leg Dist Tot Dist Heading (true) Name
O EKVG APT - 0 ft / 0 m 62.06358˚ -7.27704˚ - 0 nm - Vagar
GONUT FIX - 35,000 ft / 10,668 m 61.00000˚ -4.58333˚ 100 nm 100 nm 128° / 131° -
BAMRA FIX UM87 (AWY-HI) 35,000 ft / 10,668 m 59.43333˚ -3.95278˚ 95 nm 196 nm 168° / 169° -
SOXON FIX UM87 (AWY-HI) 31,900 ft / 9,723 m 58.96833˚ -3.87278˚ 28 nm 224 nm 175° / 175° -
PIPEM FIX UM87 (AWY-HI) 23,500 ft / 7,163 m 58.15639˚ -3.73861˚ 48 nm 273 nm 175° / 175° -
O EGPN APT - 0 ft / 0 m 56.45241˚ -3.02583˚ 104 nm 377 nm 167° / 168° Dundee

Altitude Profile

Advertisement - Login to hide

Weather


0- 5 10 15 20 25 30 35+ Temperature / ° C

Clouds and Precipitation
Forecast for 2017-12-12 00:00 UTC. Updated 12 minutes ago

Ground ~20,000 ft ~40,000 ft Winds

EKVG

Details ICAO EKVG (FAE)
Name Vagar
Region Denmark / Faroe Islands
Timezone Atlantic/Faroe (UTC+0.0)
Stats Elevation 280 ft / 85 m (AMSL)
Location 62.063584° -7.277044°
Runways 1
Magnetic Variation 5.386° W

METAR

EKVG 111920Z AUTO 34010KT 9999NDV SCT023/// 04/02 Q1000 RMK BKN019/// WIND 850FT 36011KT

Decode

TAF

Not found

Departure Runways

ID Width Length Bearing (true) Bearing (mag) Surface Threshold Offset Overrun Length
13 98 ft / 30 m 4,088 ft / 1,246 m 117.92° 123.31° Asphalt 0 ft / 0 m 197 ft / 60 m
31 98 ft / 30 m 4,088 ft / 1,246 m 297.94° 303.33° Asphalt 0 ft / 0 m 197 ft / 60 m

EGPN

Details ICAO EGPN (DND)
Name Dundee
Region United Kingdom
Timezone Unknown (UTC+0.0)
Stats Elevation 17 ft / 5 m (AMSL)
Location 56.452410° -3.025830°
Runways 1
Magnetic Variation 2.248° W

METAR

EGPN 111920Z 33004KT 9999 FEW028 02/M00 Q0997

Decode

TAF

Not found

Destination Runways

ID Width Length Bearing (true) Bearing (mag) Surface Threshold Offset Overrun Length
09 98 ft / 30 m 4,578 ft / 1,396 m 90.49° 92.74° Asphalt 0 ft / 0 m 0 ft / 0 m
27 98 ft / 30 m 4,578 ft / 1,396 m 270.51° 272.76° Asphalt 0 ft / 0 m 0 ft / 0 m

Approach Navaids

Runway Type Ident Frequency Range Bearing (true) Bearing (mag) Slope Elevation
09 Localiser IDDE 108.10 MHz 18 nm / 33 km 90.53° 92.77° - 17 ft / 5 m (AMSL)
09 Glidescope IDDE 108.10 MHz 10 nm / 19 km 90.50° 92.75° 3.00° 17 ft / 5 m (AMSL)
09 DME IDDE 108.10 MHz 18 nm / 33 km - - - 38 ft / 12 m (AMSL)

Popular Alternatives